Flight Track Log - Related Links

Times and Time Zones

All times are in EST time to prevent confusion due to time zone crossing. See the N400PU flight status page for this flight to view local times or setup timezone preferences in your user account.


Time Position Orientation Groundspeed Altitude Reporting Facility
EST Latitude Longitude Course Direction KTS MPH feet Rate Location/Type
Sun 04:06:57 PM 40.4108 -87.0425 239° Southwest 214 246 5,000  Level Chicago Center
Sun 04:07:21 PM 40.4033 -87.0586 239° Southwest 229 264 5,900 2,791 Climbing Chicago Center
Sun 04:08:23 PM 40.3811 -87.1381 250° West 237 273 9,000 1,984 Climbing Chicago Center
Sun 04:09:25 PM 40.3631 -87.2339 256° West 226 260 10,000 968 Climbing Chicago Center
Sun 04:10:27 PM 40.3428 -87.3356 255° West 287 330 11,000 1,790 Climbing Chicago Center
Sun 04:11:29 PM 40.3214 -87.4367 255° West 290 334 13,700 2,565 Climbing Chicago Center
Sun 04:12:31 PM 40.3003 -87.5403 255° West 279 321 16,300 1,935 Climbing Chicago Center
Sun 04:13:33 PM 40.2786 -87.6453 255° West 294 338 17,700 1,645 Climbing Chicago Center
Sun 04:14:35 PM 40.2567 -87.7531 255° West 305 351 19,700 1,872 Climbing Chicago Center
Sun 04:15:38 PM 40.2342 -87.8617 255° West 309 356 21,600 2,064 Climbing Chicago Center
Sun 04:16:40 PM 40.2069 -87.9931 255° West 311 358 24,000 2,032 Climbing Chicago Center
Sun 04:17:42 PM 40.1933 -88.1050 261° West 312 359 25,800 1,452 Climbing Chicago Center
Sun 04:18:44 PM 40.1875 -88.2164 266° West 312 359 27,000 1,161 Climbing Chicago Center
Sun 04:19:46 PM 40.1769 -88.3394 264° West 331 381 28,200 1,161 Climbing Chicago Center
Sun 04:20:48 PM 40.1669 -88.4636 264° West 341 392 29,400 1,306 Climbing Chicago Center
Sun 04:21:50 PM 40.1564 -88.5858 264° West 339 390 30,900 1,403 Climbing Chicago Center
Sun 04:22:52 PM 40.1486 -88.7019 265° West 328 377 32,300 1,500 Climbing Chicago Center
Sun 04:23:54 PM 40.1386 -88.8369 265° West 315 362 34,000 1,548 Climbing Chicago Center
Sun 04:24:56 PM 40.1300 -88.9450 264° West 304 350 35,500 1,355 Climbing Chicago Center
Sun 04:25:58 PM 40.1239 -89.0456 265° West 282 325 36,800 968 Climbing Chicago Center
Sun 04:27:00 PM 40.1147 -89.1406 263° West 265 305 37,500 588 Climbing Chicago Center
Sun 04:27:40 PM 40.1092 -89.2006 263° West 269 310 37,800 294 Climbing Kansas City Center
Sun 04:28:42 PM 40.1017 -89.3008 264° West 273 314 38,000 98 Climbing Kansas City Center
Sun 04:29:43 PM 40.0914 -89.4289 264° West 289 333 38,000  Level Kansas City Center
Sun 04:30:45 PM 40.0806 -89.5406 263° West 302 348 38,000  Level Kansas City Center
Sun 04:31:47 PM 40.0708 -89.6594 264° West 319 367 38,000  Level Kansas City Center
Sun 04:32:49 PM 40.0608 -89.7817 264° West 331 381 38,000  Level Kansas City Center
Sun 04:33:51 PM 40.0503 -89.9050 264° West 338 389 38,000  Level Kansas City Center
Sun 04:34:53 PM 40.0386 -90.0303 263° West 343 395 38,000  Level Kansas City Center
Sun 04:35:55 PM 40.0269 -90.1578 263° West 349 402 38,000  Level Kansas City Center
Sun 04:36:57 PM 40.0161 -90.2869 264° West 354 407 38,000  Level Kansas City Center
Sun 04:37:59 PM 40.0028 -90.4408 264° West 355 409 38,000  Level Kansas City Center
Sun 04:39:01 PM 39.9908 -90.5669 263° West 352 405 38,000  Level Kansas City Center
Sun 04:40:03 PM 39.9789 -90.6919 263° West 350 403 38,000  Level Kansas City Center
Sun 04:41:05 PM 39.9669 -90.8178 263° West 350 403 38,000  Level Kansas City Center
Sun 04:42:07 PM 39.9542 -90.9422 262° West 347 399 38,000  Level Kansas City Center
Sun 04:43:08 PM 39.9422 -91.0719 263° West 349 402 38,000  Level Kansas City Center
Sun 04:44:10 PM 39.9286 -91.2003 262° West 355 409 38,000  Level Kansas City Center
Sun 04:45:12 PM 39.9147 -91.3544 263° West 359 413 38,000  Level Kansas City Center
Sun 04:46:14 PM 39.9006 -91.4808 262° West 356 410 38,000  Level Kansas City Center
Sun 04:47:16 PM 39.8881 -91.6083 263° West 356 410 38,000  Level Kansas City Center
Sun 04:48:18 PM 39.8744 -91.7308 262° West 349 402 38,000  Level Kansas City Center
Sun 04:49:20 PM 39.8611 -91.8553 262° West 346 398 38,000 -339 Level Kansas City Center
Sun 04:50:22 PM 39.8481 -91.9792 262° West 347 399 37,300 -1,065 Descending Kansas City Center
Sun 04:51:24 PM 39.8361 -92.1017 263° West 344 396 35,800 -1,610 Descending Kansas City Center
Sun 04:52:25 PM 39.8197 -92.2525 262° West 350 403 34,000 -878 Descending Kansas City Center
Sun 04:53:27 PM 39.8053 -92.3797 262° West 353 406 34,000 -290 Level Kansas City Center
Sun 04:54:29 PM 39.7914 -92.5064 262° West 354 407 33,400 -1,258 Descending Kansas City Center
Sun 04:55:31 PM 39.7769 -92.6344 262° West 355 409 31,400 -2,081 Descending Kansas City Center
Sun 04:56:33 PM 39.7619 -92.7669 262° West 364 419 29,100 -2,419 Descending Kansas City Center
Sun 04:57:35 PM 39.7453 -92.9072 261° West 380 437 26,400 -2,565 Descending Kansas City Center
Sun 04:58:37 PM 39.7256 -93.0814 262° West 401 461 23,800 -2,323 Descending Kansas City Center
Sun 04:59:39 PM 39.7089 -93.2256 261° West 404 465 21,600 -2,226 Descending Kansas City Center
Sun 05:00:41 PM 39.6942 -93.3653 262° West 397 457 19,200 -1,951 Descending Kansas City Center
Sun 05:01:42 PM 39.6769 -93.4978 260° West 387 445 17,600 -1,707 Descending Kansas City Center
Sun 05:02:44 PM 39.6606 -93.6231 260° West 361 415 15,700 -1,839 Descending Kansas City Center
Sun 05:03:46 PM 39.6447 -93.7561 261° West 360 414 13,800 -1,790 Descending Kansas City Center
Sun 05:04:48 PM 39.6231 -93.8953 259° West 354 407 12,000 -1,258 Descending Kansas City Center
Sun 05:05:50 PM 39.5706 -93.9939 235° Southwest 348 400 11,200 -968 Descending Kansas City Center
Sun 05:06:52 PM 39.5219 -94.1094 241° Southwest 319 367 10,000 -581 Descending Kansas City Center
Sun 05:07:54 PM 39.5108 -94.2156 262° West 311 358 10,000 -532 Level Kansas City Center
Sun 05:08:56 PM 39.5000 -94.3233 263° West 265 305 8,900 -1,548 Descending Kansas City Center
Sun 05:09:58 PM 39.4800 -94.4092 253° West 260 299 6,800 -2,098 Descending Kansas City Center
Sun 05:10:59 PM 39.4578 -94.5075 254° West 255 293 4,600 -1,366 Descending Kansas City Center
Sun 05:12:01 PM 39.4417 -94.5822 254° West 231 266 4,000 -871 Descending Kansas City Center
Sun 05:13:03 PM 39.4300 -94.6433 256° West 188 216 2,800 -677 Descending Kansas City Center
Sun 05:14:05 PM 39.4017 -94.6986 236° Southwest 173 199 2,600 -435 Descending Kansas City Center
Sun 05:15:07 PM 39.3664 -94.7081 192° South 136 157 1,900 -677 Descending Kansas City Center
Sun 05:16:09 PM 39.3328 -94.7183 193° South 113 130 1,200 -435 Descending Kansas City Center
Sun 05:17:11 PM 39.3108 -94.7242 192° South 92 106 1,000 -194 Descending Kansas City Center

Login

Don't have an account? Register now (free) for customized features, flight alerts, and more!